Portada
METAR-TAF:

METAR-TAF

Aeroports :

Oceanside Municipal Airport

Oceanside, Califòrnia, Estats Units d'Amèrica

latitud: 33-13-05N, longitud: 117-21-05W, altitud: 9 m

Observació

L'informe es va fer fa 25 minuts, a les 06:52 UTC
Vent calma
Temperatura 20°C
Humitat 83%
Pressió 1012 hPa
Visibilitat: 11.3 km
Cel clar

METAR: KOKB 230652Z AUTO 00000KT 7SM CLR 20/17 A2987 RMK AO2 SLP116 T02000172

Hora: 00:17 (07:17 UTC)


TAF: manca

Observacions i pronòstics meteorològics de més de 4000 aeroports (METAR i TAF).

Les estacions disponibles són els punts grocs i vermells al mapa.

Posi el ratolí al punt desitjat per veure el nom de l'estació.

Feu clic per veure les observacions i els pronòstics meteorològics.

Per canviar el mapa: feu clic els botons verds amb una creu de color negre per apropar; al botó verd amb un guió per allunyar la imatge; o en les fletxes verdes per a mapes adjacents.


METAR-TAF: